createdAt,value
2023-03-06T00:02:19.422Z,21.50
2023-03-06T00:17:41.860Z,21.70
2023-03-06T00:28:58.767Z,21.70
2023-03-06T00:40:57.530Z,21.80
2023-03-06T00:46:30.754Z,21.70
2023-03-06T00:52:03.300Z,21.90
2023-03-06T00:57:37.414Z,22.00
2023-03-06T01:03:28.427Z,22.00
2023-03-06T01:12:14.420Z,22.10
2023-03-06T01:17:58.516Z,22.30
2023-03-06T01:32:56.669Z,22.60
2023-03-06T01:44:55.363Z,22.80
2023-03-06T01:56:54.299Z,23.00
2023-03-06T02:02:28.957Z,23.10
2023-03-06T02:08:01.745Z,23.30
2023-03-06T02:13:35.637Z,23.40
2023-03-06T02:19:09.119Z,23.50
2023-03-06T02:24:41.687Z,23.70
2023-03-06T02:30:12.543Z,23.70
2023-03-06T02:35:43.447Z,23.80
2023-03-06T02:56:39.694Z,24.20
2023-03-06T03:05:35.604Z,24.30
2023-03-06T03:23:46.732Z,24.90
2023-03-06T03:29:17.981Z,25.00
2023-03-06T03:57:22.155Z,25.50
2023-03-06T04:03:28.852Z,25.70
2023-03-06T04:09:12.069Z,25.70
2023-03-06T04:18:08.512Z,26.00
2023-03-06T04:23:41.832Z,26.20
2023-03-06T04:29:17.906Z,26.10
2023-03-06T04:38:04.297Z,26.60
2023-03-06T04:43:47.514Z,26.40
2023-03-06T04:49:30.926Z,26.50
2023-03-06T04:55:13.754Z,26.60
2023-03-06T05:07:22.947Z,26.70
2023-03-06T05:13:06.471Z,26.60
2023-03-06T05:24:43.212Z,27.30
2023-03-06T05:30:24.857Z,27.20
2023-03-06T05:49:07.937Z,27.60
2023-03-06T06:01:36.715Z,27.60
2023-03-06T06:07:36.099Z,27.80
2023-03-06T06:13:19.642Z,28.00
2023-03-06T06:24:56.481Z,28.20
2023-03-06T06:30:39.116Z,28.60
2023-03-06T06:36:22.098Z,28.10
2023-03-06T06:42:27.990Z,28.20
2023-03-06T06:48:34.022Z,28.40
2023-03-06T06:54:41.745Z,28.30
2023-03-06T07:06:50.389Z,28.40
2023-03-06T07:12:33.571Z,28.60
2023-03-06T07:18:14.279Z,28.60
2023-03-06T07:23:57.725Z,28.50
2023-03-06T07:29:42.047Z,28.70
2023-03-06T07:35:25.766Z,28.60
2023-03-06T07:41:10.908Z,28.70
2023-03-06T07:46:53.025Z,28.70
2023-03-06T07:52:35.667Z,28.80
2023-03-06T07:58:19.494Z,28.70
2023-03-06T08:10:28.793Z,28.90
2023-03-06T08:16:11.591Z,28.90
2023-03-06T08:22:23.970Z,29.10
2023-03-06T08:28:11.559Z,28.90
2023-03-06T08:33:54.524Z,28.90
2023-03-06T08:39:37.370Z,28.90
2023-03-06T08:45:18.840Z,29.00
2023-03-06T08:56:55.569Z,28.80
2023-03-06T09:02:38.934Z,28.90
2023-03-06T09:08:40.692Z,28.80
2023-03-06T09:30:26.151Z,28.80
2023-03-06T09:36:17.525Z,28.90
2023-03-06T09:48:17.032Z,28.70
2023-03-06T09:53:50.181Z,28.70
2023-03-06T09:59:21.139Z,28.70
2023-03-06T10:11:20.023Z,28.70
2023-03-06T10:16:52.973Z,28.60
2023-03-06T10:22:25.673Z,28.60
2023-03-06T10:27:58.885Z,28.50
2023-03-06T10:33:50.914Z,28.40
2023-03-06T10:39:23.964Z,28.40
2023-03-06T10:44:56.646Z,28.30
2023-03-06T10:50:29.608Z,28.20
2023-03-06T10:56:02.420Z,28.10
2023-03-06T11:01:35.480Z,28.00
2023-03-06T11:13:34.605Z,27.90
2023-03-06T11:19:05.778Z,27.80
2023-03-06T11:31:05.506Z,27.60
2023-03-06T11:36:39.351Z,27.50
2023-03-06T11:45:32.648Z,27.40
2023-03-06T11:51:35.897Z,27.30
2023-03-06T11:57:18.578Z,27.20
2023-03-06T12:03:04.404Z,27.20
2023-03-06T12:12:06.986Z,27.10
2023-03-06T12:17:58.294Z,27.00
2023-03-06T12:23:28.931Z,27.00
2023-03-06T12:29:01.904Z,26.90
2023-03-06T12:34:34.858Z,26.80
2023-03-06T12:40:05.692Z,26.70
2023-03-06T12:45:38.714Z,26.70
2023-03-06T12:51:14.865Z,26.70
2023-03-06T12:56:48.965Z,26.60
2023-03-06T13:02:22.402Z,26.50
2023-03-06T13:14:25.877Z,26.40
2023-03-06T13:19:56.896Z,26.40
2023-03-06T13:25:30.123Z,26.40
2023-03-06T13:31:03.492Z,26.30
2023-03-06T13:33:31.636Z,26.30
2023-03-06T13:39:33.547Z,26.20
2023-03-06T13:45:16.856Z,26.20
2023-03-06T13:50:57.859Z,26.10
2023-03-06T13:56:40.976Z,26.00
2023-03-06T14:02:24.092Z,25.90
2023-03-06T14:21:04.433Z,25.80
2023-03-06T14:26:47.308Z,25.70
2023-03-06T14:32:33.049Z,25.70
2023-03-06T14:44:11.244Z,25.50
2023-03-06T14:49:54.486Z,25.50
2023-03-06T15:01:30.874Z,25.30
2023-03-06T15:07:13.902Z,25.30
2023-03-06T15:19:22.885Z,24.90
2023-03-06T15:25:05.795Z,24.70
2023-03-06T15:30:50.384Z,24.80
2023-03-06T15:36:33.229Z,25.00
2023-03-06T15:42:16.169Z,24.80
2023-03-06T15:47:59.042Z,24.90
2023-03-06T15:53:42.072Z,24.90
2023-03-06T15:59:32.740Z,24.80
2023-03-06T16:05:15.863Z,24.80
2023-03-06T16:10:56.869Z,24.70
2023-03-06T16:29:04.274Z,24.70
2023-03-06T16:34:48.128Z,24.70
2023-03-06T16:46:29.491Z,24.50
2023-03-06T16:52:12.356Z,24.40
2023-03-06T16:57:55.308Z,24.40
2023-03-06T17:03:42.284Z,24.40
2023-03-06T17:09:23.976Z,24.40
2023-03-06T17:15:06.478Z,24.30
2023-03-06T17:27:15.949Z,24.20
2023-03-06T17:32:59.004Z,24.10
2023-03-06T17:38:42.700Z,24.10
2023-03-06T17:44:43.837Z,24.10
2023-03-06T17:50:26.588Z,24.10
2023-03-06T17:56:09.580Z,24.00
2023-03-06T18:01:52.548Z,24.00
2023-03-06T18:07:36.583Z,24.00
2023-03-06T18:13:23.466Z,24.00
2023-03-06T18:19:10.810Z,23.90
2023-03-06T18:24:53.850Z,23.90
2023-03-06T18:30:36.646Z,23.80
2023-03-06T18:36:19.595Z,23.80
2023-03-06T18:47:56.666Z,23.90
2023-03-06T18:53:39.966Z,23.70
2023-03-06T18:59:23.130Z,23.70
2023-03-06T19:05:05.987Z,23.70
2023-03-06T19:10:48.775Z,23.60
2023-03-06T19:16:31.278Z,23.60
2023-03-06T19:31:42.969Z,23.40
2023-03-06T19:37:15.825Z,23.30
2023-03-06T19:42:48.380Z,23.30
2023-03-06T19:48:22.753Z,23.20
2023-03-06T19:53:55.541Z,23.20
2023-03-06T19:59:28.288Z,23.20
2023-03-06T20:04:59.120Z,23.10
2023-03-06T20:10:32.066Z,23.00
2023-03-06T20:16:04.934Z,23.00
2023-03-06T20:28:06.338Z,23.00
2023-03-06T20:33:39.171Z,22.80
2023-03-06T20:39:30.415Z,22.90
2023-03-06T20:45:03.955Z,22.80
2023-03-06T20:50:37.135Z,22.70
2023-03-06T20:56:10.028Z,22.70
2023-03-06T21:01:42.019Z,22.70
2023-03-06T21:13:41.094Z,22.60
2023-03-06T21:19:14.007Z,22.60
2023-03-06T21:31:13.097Z,22.50
2023-03-06T21:36:46.062Z,22.50
2023-03-06T21:42:37.482Z,22.40
2023-03-06T21:48:10.288Z,22.30
2023-03-06T21:53:40.920Z,22.30
2023-03-06T21:59:14.781Z,22.30
2023-03-06T22:04:58.141Z,22.30
2023-03-06T22:10:34.707Z,22.20
2023-03-06T22:16:26.417Z,22.20
2023-03-06T22:21:59.660Z,22.10
2023-03-06T22:34:00.795Z,22.10
2023-03-06T22:39:33.552Z,22.10
2023-03-06T22:45:06.575Z,22.10
2023-03-06T22:50:40.111Z,22.10
2023-03-06T22:56:10.746Z,22.00
2023-03-06T23:01:42.887Z,22.00
2023-03-06T23:07:16.936Z,22.00
2023-03-06T23:12:48.046Z,21.90
2023-03-06T23:18:20.903Z,22.00
2023-03-06T23:27:14.050Z,21.90
2023-03-06T23:33:14.770Z,21.90
2023-03-06T23:38:59.676Z,21.80
2023-03-06T23:44:42.226Z,21.80
2023-03-06T23:50:24.129Z,21.80
2023-03-06T23:56:07.222Z,21.90
